createdAt,value
2017-12-05T00:00:40.379Z,972.62
2017-12-05T00:01:40.379Z,972.58
2017-12-05T00:02:40.381Z,972.57
2017-12-05T00:03:40.384Z,972.58
2017-12-05T00:04:40.384Z,972.55
2017-12-05T00:05:40.386Z,972.55
2017-12-05T00:06:40.388Z,972.54
2017-12-05T00:07:40.394Z,972.54
2017-12-05T00:08:40.392Z,972.50
2017-12-05T00:09:40.394Z,972.48
2017-12-05T00:10:40.397Z,972.48
2017-12-05T00:11:40.397Z,972.51
2017-12-05T00:12:40.398Z,972.51
2017-12-05T00:13:40.402Z,972.48
2017-12-05T00:14:40.403Z,972.48
2017-12-05T00:15:40.403Z,972.48
2017-12-05T00:16:40.405Z,972.48
2017-12-05T00:17:40.408Z,972.46
2017-12-05T00:18:40.409Z,972.49
2017-12-05T00:19:40.410Z,972.48
2017-12-05T00:20:40.412Z,972.48
2017-12-05T00:21:40.414Z,972.46
2017-12-05T00:22:40.417Z,972.45
2017-12-05T00:23:40.425Z,972.46
2017-12-05T00:24:40.419Z,972.47
2017-12-05T00:25:40.422Z,972.46
2017-12-05T00:26:40.423Z,972.44
2017-12-05T00:27:40.425Z,972.46
2017-12-05T00:28:40.426Z,972.47
2017-12-05T00:29:40.427Z,972.44
2017-12-05T00:30:40.430Z,972.43
2017-12-05T00:31:40.435Z,972.44
2017-12-05T00:32:40.433Z,972.43
2017-12-05T00:33:40.433Z,972.47
2017-12-05T00:34:40.441Z,972.49
2017-12-05T00:35:40.440Z,972.49
2017-12-05T00:36:40.440Z,972.48
2017-12-05T00:37:40.442Z,972.48
2017-12-05T00:38:40.444Z,972.51
2017-12-05T00:39:40.443Z,972.51
2017-12-05T00:40:40.445Z,972.51
2017-12-05T00:41:40.451Z,972.51
2017-12-05T00:42:40.451Z,972.53
2017-12-05T00:43:40.453Z,972.52
2017-12-05T00:44:40.453Z,972.54
2017-12-05T00:45:40.455Z,972.54
2017-12-05T00:46:40.458Z,972.57
2017-12-05T00:47:40.461Z,972.61
2017-12-05T00:48:40.462Z,972.60
2017-12-05T00:49:40.463Z,972.60
2017-12-05T00:50:40.469Z,972.53
2017-12-05T00:51:40.467Z,972.56
2017-12-05T00:52:40.469Z,972.53
2017-12-05T00:53:40.470Z,972.54
2017-12-05T00:54:40.470Z,972.52
2017-12-05T00:55:40.474Z,972.48
2017-12-05T00:56:40.475Z,972.48
2017-12-05T00:57:40.478Z,972.47
2017-12-05T00:58:40.481Z,972.45
2017-12-05T00:59:40.481Z,972.47
2017-12-05T01:00:40.482Z,972.47
2017-12-05T01:01:40.485Z,972.46
2017-12-05T01:02:40.486Z,972.46
2017-12-05T01:03:40.489Z,972.49
2017-12-05T01:04:40.489Z,972.52
2017-12-05T01:05:40.490Z,972.53
2017-12-05T01:06:40.491Z,972.56
2017-12-05T01:07:40.494Z,972.57
2017-12-05T01:08:40.496Z,972.56
2017-12-05T01:09:40.496Z,972.58
2017-12-05T01:10:40.499Z,972.58
2017-12-05T01:11:40.502Z,972.59
2017-12-05T01:12:40.502Z,972.60
2017-12-05T01:13:40.504Z,972.61
2017-12-05T01:14:40.506Z,972.61
2017-12-05T01:15:40.510Z,972.63
2017-12-05T01:16:40.508Z,972.60
2017-12-05T01:17:40.511Z,972.60
2017-12-05T01:18:40.513Z,972.60
2017-12-05T01:19:40.515Z,972.61
2017-12-05T01:20:40.520Z,972.63
2017-12-05T01:21:40.522Z,972.63
2017-12-05T01:22:40.519Z,972.65
2017-12-05T01:23:40.522Z,972.66
2017-12-05T01:24:40.572Z,972.64
2017-12-05T01:25:40.524Z,972.64
2017-12-05T01:26:40.526Z,972.67
2017-12-05T01:27:40.533Z,972.69
2017-12-05T01:28:40.530Z,972.68
2017-12-05T01:29:40.543Z,972.68
2017-12-05T01:30:40.533Z,972.62
2017-12-05T01:31:40.535Z,972.66
2017-12-05T01:32:40.536Z,972.65
2017-12-05T01:33:40.538Z,972.62
2017-12-05T01:34:40.540Z,972.65
2017-12-05T01:35:40.573Z,972.63
2017-12-05T01:36:40.542Z,972.68
2017-12-05T01:37:40.545Z,972.70
2017-12-05T01:38:40.547Z,972.68
2017-12-05T01:39:40.549Z,972.71
2017-12-05T01:40:40.551Z,972.76
2017-12-05T01:41:40.553Z,972.77
2017-12-05T01:42:40.554Z,972.79
2017-12-05T01:43:40.556Z,972.81
2017-12-05T01:44:40.562Z,972.84
2017-12-05T01:45:40.561Z,972.80
2017-12-05T01:46:40.562Z,972.81
2017-12-05T01:47:40.564Z,972.83
2017-12-05T01:48:40.564Z,972.78
2017-12-05T01:49:40.565Z,972.81
2017-12-05T01:50:40.567Z,972.82
2017-12-05T01:51:40.571Z,972.78
2017-12-05T01:52:40.570Z,972.76
2017-12-05T01:53:40.572Z,972.73
2017-12-05T01:54:40.574Z,972.73
2017-12-05T01:55:40.574Z,972.78
2017-12-05T01:56:40.578Z,972.78
2017-12-05T01:57:40.583Z,972.79
2017-12-05T01:58:40.581Z,972.81
2017-12-05T01:59:40.585Z,972.86
2017-12-05T02:00:40.583Z,972.81
2017-12-05T02:01:40.586Z,972.83
2017-12-05T02:02:40.588Z,972.83
2017-12-05T02:03:40.589Z,972.82
2017-12-05T02:04:40.593Z,972.80
2017-12-05T02:05:40.592Z,972.85
2017-12-05T02:06:40.594Z,972.80
2017-12-05T02:07:40.596Z,972.80
2017-12-05T02:08:40.599Z,972.79
2017-12-05T02:09:40.598Z,972.74
2017-12-05T02:10:40.647Z,972.77
2017-12-05T02:11:40.602Z,972.74
2017-12-05T02:12:40.603Z,972.71
2017-12-05T02:13:40.606Z,972.69
2017-12-05T02:14:40.616Z,972.78
2017-12-05T02:15:40.614Z,972.77
2017-12-05T02:16:40.609Z,972.78
2017-12-05T02:17:40.622Z,972.78
2017-12-05T02:18:40.614Z,972.74
2017-12-05T02:19:40.616Z,972.73
2017-12-05T02:20:40.617Z,972.68
2017-12-05T02:21:40.619Z,972.63
2017-12-05T02:22:40.620Z,972.65
2017-12-05T02:23:40.623Z,972.63
2017-12-05T02:24:40.630Z,972.60
2017-12-05T02:25:40.626Z,972.60
2017-12-05T02:26:40.628Z,972.60
2017-12-05T02:27:40.637Z,972.55
2017-12-05T02:28:40.630Z,972.57
2017-12-05T02:29:40.661Z,972.59
2017-12-05T02:30:40.635Z,972.59
2017-12-05T02:31:40.638Z,972.61
2017-12-05T02:32:40.637Z,972.65
2017-12-05T02:33:40.638Z,972.63
2017-12-05T02:34:40.641Z,972.65
2017-12-05T02:35:40.665Z,972.65
2017-12-05T02:36:40.643Z,972.65
2017-12-05T02:37:40.649Z,972.66
2017-12-05T02:38:40.653Z,972.66
2017-12-05T02:39:40.653Z,972.68
2017-12-05T02:40:40.653Z,972.64
2017-12-05T02:41:40.656Z,972.64
2017-12-05T02:42:40.664Z,972.64
2017-12-05T02:43:40.666Z,972.66
2017-12-05T02:44:40.662Z,972.66
2017-12-05T02:45:40.665Z,972.69
2017-12-05T02:46:40.667Z,972.69
2017-12-05T02:47:40.665Z,972.66
2017-12-05T02:48:40.668Z,972.70
2017-12-05T02:49:40.671Z,972.70
2017-12-05T02:50:40.669Z,972.70
2017-12-05T02:51:40.670Z,972.75
2017-12-05T02:52:40.671Z,972.73
2017-12-05T02:53:40.672Z,972.75
2017-12-05T02:54:40.673Z,972.69
2017-12-05T02:55:40.676Z,972.74
2017-12-05T02:56:40.677Z,972.69
2017-12-05T02:57:40.678Z,972.73
2017-12-05T02:58:40.686Z,972.68
2017-12-05T02:59:40.683Z,972.78
2017-12-05T03:00:40.683Z,972.73
2017-12-05T03:01:40.685Z,972.71
2017-12-05T03:02:40.687Z,972.72
2017-12-05T03:03:40.689Z,972.73
2017-12-05T03:04:40.690Z,972.73
2017-12-05T03:05:40.693Z,972.75
2017-12-05T03:06:40.694Z,972.76
2017-12-05T03:07:40.696Z,972.75
2017-12-05T03:08:40.696Z,972.73
2017-12-05T03:09:40.699Z,972.75
2017-12-05T03:10:40.699Z,972.73
2017-12-05T03:11:40.702Z,972.72
2017-12-05T03:12:40.703Z,972.73
2017-12-05T03:13:40.704Z,972.73
2017-12-05T03:14:40.708Z,972.74
2017-12-05T03:15:40.708Z,972.68
2017-12-05T03:16:40.709Z,972.76
2017-12-05T03:17:40.712Z,972.74
2017-12-05T03:18:40.714Z,972.77
2017-12-05T03:19:40.715Z,972.77
2017-12-05T03:20:40.716Z,972.76
2017-12-05T03:21:40.719Z,972.79
2017-12-05T03:22:40.720Z,972.81
2017-12-05T03:23:40.722Z,972.79
2017-12-05T03:24:40.724Z,972.79
2017-12-05T03:25:40.724Z,972.78
2017-12-05T03:26:40.726Z,972.80
2017-12-05T03:27:40.728Z,972.77
2017-12-05T03:28:40.729Z,972.81
2017-12-05T03:29:40.731Z,972.79
2017-12-05T03:30:40.733Z,972.85
2017-12-05T03:31:40.735Z,972.85
2017-12-05T03:32:40.736Z,972.81
2017-12-05T03:33:40.737Z,972.80
2017-12-05T03:34:40.737Z,972.82
2017-12-05T03:35:40.741Z,972.80
2017-12-05T03:36:40.741Z,972.80
2017-12-05T03:37:40.752Z,972.83
2017-12-05T03:38:40.745Z,972.79
2017-12-05T03:39:40.750Z,972.79
2017-12-05T03:40:40.749Z,972.76
2017-12-05T03:41:40.750Z,972.77
2017-12-05T03:42:40.751Z,972.76
2017-12-05T03:43:40.754Z,972.77
2017-12-05T03:44:40.759Z,972.76
2017-12-05T03:45:40.761Z,972.77
2017-12-05T03:46:40.767Z,972.79
2017-12-05T03:47:40.764Z,972.80
2017-12-05T03:48:40.764Z,972.80
2017-12-05T03:49:40.764Z,972.78
2017-12-05T03:50:40.766Z,972.82
2017-12-05T03:51:40.767Z,972.79
2017-12-05T03:52:40.766Z,972.82
2017-12-05T03:53:40.768Z,972.82
2017-12-05T03:54:40.771Z,972.84
2017-12-05T03:55:40.773Z,972.84
2017-12-05T03:56:40.772Z,972.85
2017-12-05T03:57:40.775Z,972.83
2017-12-05T03:58:40.776Z,972.83
2017-12-05T03:59:40.779Z,972.82
2017-12-05T04:00:40.780Z,972.84
2017-12-05T04:01:40.782Z,972.79
2017-12-05T04:02:40.783Z,972.80
2017-12-05T04:03:40.785Z,972.79
2017-12-05T04:04:40.806Z,972.79
2017-12-05T04:05:40.788Z,972.77
2017-12-05T04:06:40.789Z,972.73
2017-12-05T04:07:40.791Z,972.74
2017-12-05T04:08:40.792Z,972.71
2017-12-05T04:09:40.794Z,972.70
2017-12-05T04:10:40.795Z,972.68
2017-12-05T04:11:40.797Z,972.67
2017-12-05T04:12:40.797Z,972.64
2017-12-05T04:13:40.800Z,972.61
2017-12-05T04:14:40.802Z,972.63
2017-12-05T04:15:40.806Z,972.62
2017-12-05T04:16:40.804Z,972.57
2017-12-05T04:17:40.806Z,972.59
2017-12-05T04:18:40.808Z,972.56
2017-12-05T04:19:40.812Z,972.59
2017-12-05T04:20:40.811Z,972.53
2017-12-05T04:21:40.813Z,972.56
2017-12-05T04:22:40.814Z,972.54
2017-12-05T04:23:40.816Z,972.53
2017-12-05T04:24:40.817Z,972.51
2017-12-05T04:25:40.819Z,972.50
2017-12-05T04:26:40.821Z,972.46
2017-12-05T04:27:40.823Z,972.51
2017-12-05T04:28:40.823Z,972.50
2017-12-05T04:29:40.826Z,972.50
2017-12-05T04:30:40.827Z,972.47
2017-12-05T04:31:40.829Z,972.46
2017-12-05T04:32:40.831Z,972.47
2017-12-05T04:33:40.841Z,972.46
2017-12-05T04:34:40.838Z,972.49
2017-12-05T04:35:40.836Z,972.44
2017-12-05T04:36:40.836Z,972.44
2017-12-05T04:37:40.839Z,972.45
2017-12-05T04:38:40.845Z,972.48
2017-12-05T04:39:40.854Z,972.44
2017-12-05T04:40:40.842Z,972.46
2017-12-05T04:41:40.844Z,972.46
2017-12-05T04:42:40.844Z,972.44
2017-12-05T04:43:40.850Z,972.45
2017-12-05T04:44:40.848Z,972.44
2017-12-05T04:45:40.851Z,972.43
2017-12-05T04:46:40.852Z,972.45
2017-12-05T04:47:40.887Z,972.47
2017-12-05T04:48:40.854Z,972.47
2017-12-05T04:49:40.857Z,972.43
2017-12-05T04:50:40.860Z,972.43
2017-12-05T04:51:40.860Z,972.43
2017-12-05T04:52:40.861Z,972.44
2017-12-05T04:53:40.863Z,972.41
2017-12-05T04:54:40.864Z,972.42
2017-12-05T04:55:40.866Z,972.42
2017-12-05T04:56:40.867Z,972.46
2017-12-05T04:57:40.869Z,972.42
2017-12-05T04:58:40.870Z,972.47
2017-12-05T04:59:40.872Z,972.48
2017-12-05T05:00:40.873Z,972.49
2017-12-05T05:01:40.874Z,972.52
2017-12-05T05:02:40.876Z,972.52
2017-12-05T05:03:40.883Z,972.52
2017-12-05T05:04:40.879Z,972.59
2017-12-05T05:05:40.882Z,972.56
2017-12-05T05:06:40.882Z,972.54
2017-12-05T05:07:40.884Z,972.52
2017-12-05T05:08:40.886Z,972.56
2017-12-05T05:09:40.887Z,972.55
2017-12-05T05:10:40.889Z,972.02
2017-12-05T05:11:40.890Z,972.16
2017-12-05T05:12:40.892Z,972.23
2017-12-05T05:13:40.896Z,972.19
2017-12-05T05:14:40.894Z,972.26
2017-12-05T05:15:40.897Z,972.24
2017-12-05T05:16:40.898Z,972.22
2017-12-05T05:17:40.899Z,972.21
2017-12-05T05:18:40.901Z,972.20
2017-12-05T05:19:40.904Z,972.25
2017-12-05T05:20:40.905Z,972.23
2017-12-05T05:21:40.906Z,972.27
2017-12-05T05:22:40.908Z,972.29
2017-12-05T05:23:40.912Z,972.32
2017-12-05T05:24:40.910Z,972.34
2017-12-05T05:25:40.912Z,972.33
2017-12-05T05:26:40.914Z,972.33
2017-12-05T05:28:40.923Z,972.35
2017-12-05T05:29:40.921Z,972.40
2017-12-05T05:30:40.923Z,972.42
2017-12-05T05:31:40.924Z,972.40
2017-12-05T05:32:40.927Z,972.39
2017-12-05T05:33:40.926Z,972.38
2017-12-05T05:34:40.930Z,972.36
2017-12-05T05:35:40.931Z,972.38
2017-12-05T05:36:40.930Z,972.38
2017-12-05T05:37:40.934Z,972.38
2017-12-05T05:38:40.935Z,972.41
2017-12-05T05:39:40.940Z,972.40
2017-12-05T05:40:40.938Z,972.42
2017-12-05T05:41:40.941Z,972.48
2017-12-05T05:42:40.943Z,972.44
2017-12-05T05:43:40.944Z,972.48
2017-12-05T05:44:40.948Z,972.48
2017-12-05T05:45:40.947Z,972.48
2017-12-05T05:46:40.949Z,972.43
2017-12-05T05:47:40.951Z,972.45
2017-12-05T05:48:40.954Z,972.51
2017-12-05T05:49:40.968Z,972.47
2017-12-05T05:50:40.956Z,972.47
2017-12-05T05:51:40.958Z,972.47
2017-12-05T05:52:40.959Z,972.46
2017-12-05T05:53:40.961Z,972.43
2017-12-05T05:54:40.964Z,972.41
2017-12-05T05:55:40.965Z,972.45
2017-12-05T05:56:40.967Z,972.45
2017-12-05T05:57:40.971Z,972.45
2017-12-05T05:58:40.968Z,972.42
2017-12-05T05:59:40.972Z,972.43
2017-12-05T06:00:40.976Z,972.44
2017-12-05T06:01:40.973Z,972.45
2017-12-05T06:02:40.977Z,972.40
2017-12-05T06:03:40.978Z,972.43
2017-12-05T06:04:41.029Z,972.44
2017-12-05T06:05:40.981Z,972.47
2017-12-05T06:06:40.984Z,972.45
2017-12-05T06:07:40.986Z,972.45
2017-12-05T06:08:40.987Z,972.46
2017-12-05T06:09:40.990Z,972.45
2017-12-05T06:10:40.990Z,972.48
2017-12-05T06:11:40.995Z,972.49
2017-12-05T06:12:40.993Z,972.49
2017-12-05T06:13:40.995Z,972.46
2017-12-05T06:14:41.014Z,972.54
2017-12-05T06:15:41.000Z,972.47
2017-12-05T06:16:41.000Z,972.51
2017-12-05T06:17:41.006Z,972.51
2017-12-05T06:18:41.004Z,972.54
2017-12-05T06:19:41.010Z,972.53
2017-12-05T06:20:41.007Z,972.51
2017-12-05T06:21:41.009Z,972.51
2017-12-05T06:22:41.011Z,972.59
2017-12-05T06:23:41.013Z,972.59
2017-12-05T06:24:41.014Z,972.64
2017-12-05T06:25:41.016Z,972.57
2017-12-05T06:26:41.020Z,972.59
2017-12-05T06:27:41.020Z,972.65
2017-12-05T06:28:41.022Z,972.62
2017-12-05T06:29:41.024Z,972.63
2017-12-05T06:30:41.025Z,972.63
2017-12-05T06:31:41.027Z,972.66
2017-12-05T06:32:41.031Z,972.67
2017-12-05T06:33:41.030Z,972.67
2017-12-05T06:34:41.041Z,972.68
2017-12-05T06:35:41.034Z,972.70
2017-12-05T06:36:41.035Z,972.70
2017-12-05T06:37:41.037Z,972.71
2017-12-05T06:38:41.037Z,972.72
2017-12-05T06:39:41.041Z,972.72
2017-12-05T06:40:41.044Z,972.70
2017-12-05T06:41:41.044Z,972.71
2017-12-05T06:42:41.047Z,972.68
2017-12-05T06:43:41.047Z,972.74
2017-12-05T06:44:41.049Z,972.72
2017-12-05T06:45:41.051Z,972.74
2017-12-05T06:46:41.052Z,972.75
2017-12-05T06:47:41.054Z,972.76
2017-12-05T06:48:41.055Z,972.76
2017-12-05T06:49:41.058Z,972.72
2017-12-05T06:50:41.062Z,972.73
2017-12-05T06:51:41.061Z,972.72
2017-12-05T06:52:41.064Z,972.77
2017-12-05T06:53:41.065Z,972.77
2017-12-05T06:54:41.066Z,972.77
2017-12-05T06:55:41.069Z,972.73
2017-12-05T06:56:41.071Z,972.74
2017-12-05T06:57:41.072Z,972.78
2017-12-05T06:58:41.074Z,972.73
2017-12-05T06:59:41.085Z,972.79
2017-12-05T07:00:41.082Z,972.73
2017-12-05T07:01:41.078Z,972.77
2017-12-05T07:02:41.082Z,972.78
2017-12-05T07:03:41.080Z,972.83
2017-12-05T07:04:41.192Z,972.82
2017-12-05T07:05:41.084Z,972.83
2017-12-05T07:06:41.087Z,972.83
2017-12-05T07:07:41.090Z,972.87
2017-12-05T07:08:41.090Z,972.88
2017-12-05T07:09:41.092Z,972.88
2017-12-05T07:10:41.094Z,972.89
2017-12-05T07:11:41.096Z,972.93
2017-12-05T07:12:41.098Z,972.89
2017-12-05T07:13:41.099Z,972.88
2017-12-05T07:14:41.102Z,972.89
2017-12-05T07:15:41.104Z,972.92
2017-12-05T07:16:41.111Z,972.93
2017-12-05T07:17:41.106Z,973.00
2017-12-05T07:18:41.110Z,972.97
2017-12-05T07:20:41.111Z,972.93
2017-12-05T07:21:41.117Z,972.96
2017-12-05T07:22:41.118Z,973.00
2017-12-05T07:23:41.117Z,973.03
2017-12-05T07:24:41.118Z,973.02
2017-12-05T07:25:41.120Z,973.04
2017-12-05T07:26:41.121Z,973.01
2017-12-05T07:27:41.123Z,973.02
2017-12-05T07:28:41.124Z,973.06
2017-12-05T07:29:41.128Z,973.10
2017-12-05T07:30:41.129Z,973.13
2017-12-05T07:31:41.132Z,973.11
2017-12-05T07:32:41.132Z,973.45
2017-12-05T07:33:41.134Z,973.48
2017-12-05T07:34:41.140Z,973.54
2017-12-05T07:35:41.138Z,973.53
2017-12-05T07:36:41.139Z,973.52
2017-12-05T07:37:41.141Z,973.52
2017-12-05T07:38:41.143Z,973.50
2017-12-05T07:39:41.145Z,973.58
2017-12-05T07:40:41.146Z,973.60
2017-12-05T07:41:41.150Z,973.57
2017-12-05T07:42:41.149Z,973.54
2017-12-05T07:43:41.151Z,973.56
2017-12-05T07:44:41.162Z,973.57
2017-12-05T07:45:41.163Z,973.62
2017-12-05T07:46:41.165Z,973.64
2017-12-05T07:47:41.163Z,973.69
2017-12-05T07:48:41.167Z,973.69
2017-12-05T07:49:41.168Z,973.64
2017-12-05T07:50:41.170Z,973.64
2017-12-05T07:51:41.168Z,973.66
2017-12-05T07:52:41.183Z,973.64
2017-12-05T07:53:41.178Z,973.65
2017-12-05T07:54:41.178Z,973.69
2017-12-05T07:55:41.176Z,973.64
2017-12-05T07:56:41.184Z,973.71
2017-12-05T07:57:41.236Z,973.70
2017-12-05T07:58:41.183Z,973.69
2017-12-05T07:59:41.184Z,973.74
2017-12-05T08:00:41.187Z,973.71
2017-12-05T08:01:41.201Z,973.71
2017-12-05T08:02:41.189Z,973.68
2017-12-05T08:03:41.192Z,973.73
2017-12-05T08:04:41.190Z,973.74
2017-12-05T08:05:41.196Z,973.71
2017-12-05T08:06:41.203Z,973.70
2017-12-05T08:07:41.199Z,973.71
2017-12-05T08:08:41.202Z,973.72
2017-12-05T08:09:41.206Z,973.68
2017-12-05T08:10:41.207Z,973.67
2017-12-05T08:11:41.209Z,973.70
2017-12-05T08:12:41.210Z,973.71
2017-12-05T08:13:41.212Z,973.67
2017-12-05T08:14:41.216Z,973.68
2017-12-05T08:15:41.217Z,973.65
2017-12-05T08:16:41.219Z,973.69
2017-12-05T08:17:41.220Z,973.68
2017-12-05T08:18:41.223Z,973.65
2017-12-05T08:19:41.226Z,973.71
2017-12-05T08:20:41.225Z,973.71
2017-12-05T08:21:41.234Z,973.65
2017-12-05T08:22:41.232Z,973.67
2017-12-05T08:23:41.233Z,973.65
2017-12-05T08:24:41.241Z,973.68
2017-12-05T08:25:41.260Z,973.68
2017-12-05T08:26:41.240Z,973.69
2017-12-05T08:27:41.244Z,973.67
2017-12-05T08:28:41.253Z,973.69
2017-12-05T08:29:41.248Z,973.67
2017-12-05T08:30:41.251Z,973.67
2017-12-05T08:31:41.254Z,973.62
2017-12-05T08:32:41.255Z,973.58
2017-12-05T08:33:41.256Z,973.63
2017-12-05T08:34:41.258Z,973.58
2017-12-05T08:35:41.262Z,973.60
2017-12-05T08:36:41.274Z,973.62
2017-12-05T08:37:41.269Z,973.48
2017-12-05T08:38:41.268Z,973.47
2017-12-05T08:39:41.272Z,973.50
2017-12-05T08:40:41.271Z,973.50
2017-12-05T08:41:41.276Z,973.49
2017-12-05T08:42:41.277Z,973.52
2017-12-05T08:43:41.278Z,973.55
2017-12-05T08:44:41.285Z,973.51
2017-12-05T08:45:41.285Z,973.54
2017-12-05T08:46:41.286Z,973.56
2017-12-05T08:47:41.290Z,973.55
2017-12-05T08:48:41.307Z,973.53
2017-12-05T08:49:41.292Z,973.56
2017-12-05T08:50:41.296Z,973.56
2017-12-05T08:51:41.308Z,973.57
2017-12-05T08:52:41.296Z,973.54
2017-12-05T08:53:41.300Z,973.46
2017-12-05T08:54:41.321Z,973.66
2017-12-05T08:55:41.306Z,973.70
2017-12-05T08:56:41.306Z,973.71
2017-12-05T08:57:41.311Z,973.70
2017-12-05T08:58:41.312Z,973.70
2017-12-05T08:59:41.314Z,973.70
2017-12-05T09:00:41.319Z,973.75
2017-12-05T09:01:41.318Z,973.75
2017-12-05T09:02:41.320Z,973.74
2017-12-05T09:03:41.322Z,973.80
2017-12-05T09:04:41.324Z,973.77
2017-12-05T09:05:41.329Z,973.74
2017-12-05T09:06:41.329Z,973.74
2017-12-05T09:07:41.332Z,973.75
2017-12-05T09:08:41.334Z,973.73
2017-12-05T09:09:41.341Z,973.71
2017-12-05T09:10:41.339Z,973.73
2017-12-05T09:11:41.342Z,973.71
2017-12-05T09:12:41.345Z,973.75
2017-12-05T09:13:41.346Z,973.78
2017-12-05T09:14:41.350Z,973.76
2017-12-05T09:15:41.352Z,973.79
2017-12-05T09:16:41.353Z,973.78
2017-12-05T09:17:41.357Z,973.80
2017-12-05T09:18:41.358Z,973.79
2017-12-05T09:19:41.363Z,973.79
2017-12-05T09:20:41.365Z,973.78
2017-12-05T09:21:41.368Z,973.84
2017-12-05T09:22:41.369Z,973.83
2017-12-05T09:23:41.371Z,973.83
2017-12-05T09:24:41.371Z,973.81
2017-12-05T09:25:41.375Z,973.82
2017-12-05T09:26:41.379Z,973.87
2017-12-05T09:27:41.381Z,973.82
2017-12-05T09:28:41.389Z,973.88
2017-12-05T09:29:41.412Z,973.92
2017-12-05T09:30:41.386Z,973.87
2017-12-05T09:31:41.393Z,973.91
2017-12-05T09:32:41.392Z,973.85
2017-12-05T09:33:41.395Z,973.89
2017-12-05T09:34:41.398Z,973.87
2017-12-05T09:35:41.398Z,973.87
2017-12-05T09:36:41.401Z,973.84
2017-12-05T09:37:41.403Z,973.82
2017-12-05T09:38:41.406Z,973.89
2017-12-05T09:39:41.410Z,973.90
2017-12-05T09:40:41.410Z,973.89
2017-12-05T09:41:41.412Z,973.89
2017-12-05T09:42:41.412Z,973.93
2017-12-05T09:43:41.417Z,973.89
2017-12-05T09:44:41.418Z,973.89
2017-12-05T09:45:41.433Z,973.89
2017-12-05T09:46:41.423Z,973.85
2017-12-05T09:47:41.427Z,973.89
2017-12-05T09:48:41.428Z,973.83
2017-12-05T09:49:41.437Z,973.82
2017-12-05T09:50:41.437Z,973.79
2017-12-05T09:51:41.435Z,973.79
2017-12-05T09:52:41.437Z,973.75
2017-12-05T09:53:41.438Z,973.81
2017-12-05T09:54:41.441Z,973.80
2017-12-05T09:55:41.444Z,973.82
2017-12-05T09:56:41.445Z,973.81
2017-12-05T09:57:41.447Z,973.77
2017-12-05T09:58:41.449Z,973.77
2017-12-05T09:59:41.464Z,973.79
2017-12-05T10:00:41.453Z,973.81
2017-12-05T10:01:41.459Z,973.79
2017-12-05T10:02:41.458Z,973.23
2017-12-05T10:03:41.462Z,973.62
2017-12-05T10:04:41.462Z,973.67
2017-12-05T10:05:41.464Z,973.82
2017-12-05T10:06:41.466Z,973.80
2017-12-05T10:07:41.469Z,973.84
2017-12-05T10:08:41.470Z,973.79
2017-12-05T10:09:41.472Z,973.79
2017-12-05T10:10:41.474Z,973.77
2017-12-05T10:11:41.479Z,973.79
2017-12-05T10:12:41.479Z,973.77
2017-12-05T10:13:41.489Z,973.70
2017-12-05T10:14:41.486Z,973.72
2017-12-05T10:15:41.487Z,973.70
